Miami, Florida
Traffic Map
Current Weather Conditions
Miami, Florida
Overcast
Overcast
80°
Feels Like: 85°
Wind Chill: 80° Ceiling: 12000
Heat Index: 85° Visibility: 10mi
Dew Point: 76° Wind: 15mph
Humidity: 87% Direction: 130° (SE)
Pressure: 29.99in Gusts: 23mph
Raw Report DataKMIA 301353Z 13013G20KT 10SM FEW033 SCT095 BKN120 OVC220 27/24 A2999 RMK AO2 PK WND 14028/1312 RAB26E35 SLP154 P0000 T02670244 $
Traffic Incident Summary
Active as of:
Severity:
Category:
InformationThere was an issue retrieving the traffic information for this location. Please try a different location or try again shortly.
Advertisements
Track Severe Weather on mobile